sensor_id;sensor_type;location;lat;lon;timestamp;pressure;altitude;pressure_sealevel;temperature;humidity
11487;BME280;10510;47.942;9.442;2023-03-25T00:00:01;94133.41;;;5.76;100.00
11487;BME280;10510;47.942;9.442;2023-03-25T00:02:06;94136.19;;;5.74;100.00
11487;BME280;10510;47.942;9.442;2023-03-25T00:04:07;94131.31;;;5.71;100.00
11487;BME280;10510;47.942;9.442;2023-03-25T00:06:09;94130.81;;;5.67;100.00
11487;BME280;10510;47.942;9.442;2023-03-25T00:08:09;94127.75;;;5.64;100.00
11487;BME280;10510;47.942;9.442;2023-03-25T00:10:11;94125.50;;;5.69;100.00
11487;BME280;10510;47.942;9.442;2023-03-25T00:12:13;94122.91;;;5.69;100.00
11487;BME280;10510;47.942;9.442;2023-03-25T00:14:13;94117.84;;;5.67;100.00
11487;BME280;10510;47.942;9.442;2023-03-25T00:16:16;94101.50;;;5.67;100.00
11487;BME280;10510;47.942;9.442;2023-03-25T00:18:20;94100.69;;;5.66;100.00
11487;BME280;10510;47.942;9.442;2023-03-25T00:20:21;94091.31;;;5.65;100.00
11487;BME280;10510;47.942;9.442;2023-03-25T00:22:22;94108.16;;;5.61;100.00
11487;BME280;10510;47.942;9.442;2023-03-25T00:24:22;94102.97;;;5.61;100.00
11487;BME280;10510;47.942;9.442;2023-03-25T00:26:22;94091.66;;;5.62;100.00
11487;BME280;10510;47.942;9.442;2023-03-25T00:28:23;94101.03;;;5.63;100.00
11487;BME280;10510;47.942;9.442;2023-03-25T00:30:24;94101.22;;;5.62;100.00
11487;BME280;10510;47.942;9.442;2023-03-25T00:32:24;94093.25;;;5.63;100.00
11487;BME280;10510;47.942;9.442;2023-03-25T00:34:28;94086.47;;;5.62;100.00
11487;BME280;10510;47.942;9.442;2023-03-25T00:36:28;94086.13;;;5.65;100.00
11487;BME280;10510;47.942;9.442;2023-03-25T00:38:31;94096.97;;;5.69;100.00
11487;BME280;10510;47.942;9.442;2023-03-25T00:40:33;94089.19;;;5.69;100.00
11487;BME280;10510;47.942;9.442;2023-03-25T00:42:33;94093.56;;;5.68;100.00
11487;BME280;10510;47.942;9.442;2023-03-25T00:44:40;94088.38;;;5.68;100.00
11487;BME280;10510;47.942;9.442;2023-03-25T00:46:40;94078.16;;;5.67;100.00
11487;BME280;10510;47.942;9.442;2023-03-25T00:48:41;94067.16;;;5.65;100.00
11487;BME280;10510;47.942;9.442;2023-03-25T00:50:42;94073.31;;;5.64;100.00
11487;BME280;10510;47.942;9.442;2023-03-25T00:52:42;94080.13;;;5.65;100.00
11487;BME280;10510;47.942;9.442;2023-03-25T00:54:42;94068.94;;;5.64;100.00
11487;BME280;10510;47.942;9.442;2023-03-25T00:56:43;94066.84;;;5.68;100.00
11487;BME280;10510;47.942;9.442;2023-03-25T00:58:43;94071.03;;;5.69;100.00
11487;BME280;10510;47.942;9.442;2023-03-25T01:00:43;94076.22;;;5.69;100.00
11487;BME280;10510;47.942;9.442;2023-03-25T01:02:44;94079.63;;;5.69;100.00
11487;BME280;10510;47.942;9.442;2023-03-25T01:04:44;94072.50;;;5.72;100.00
11487;BME280;10510;47.942;9.442;2023-03-25T01:06:45;94077.50;;;5.73;100.00
11487;BME280;10510;47.942;9.442;2023-03-25T01:08:51;94085.00;;;5.68;100.00
11487;BME280;10510;47.942;9.442;2023-03-25T01:10:52;94086.94;;;5.66;100.00
11487;BME280;10510;47.942;9.442;2023-03-25T01:12:55;94095.69;;;5.65;100.00
11487;BME280;10510;47.942;9.442;2023-03-25T01:14:55;94086.13;;;5.65;100.00
11487;BME280;10510;47.942;9.442;2023-03-25T01:16:57;94090.16;;;5.68;100.00
11487;BME280;10510;47.942;9.442;2023-03-25T01:18:58;94100.34;;;5.69;100.00
11487;BME280;10510;47.942;9.442;2023-03-25T01:20:58;94085.00;;;5.68;100.00
11487;BME280;10510;47.942;9.442;2023-03-25T01:22:58;94085.59;;;5.70;100.00
11487;BME280;10510;47.942;9.442;2023-03-25T01:24:59;94088.19;;;5.70;100.00
11487;BME280;10510;47.942;9.442;2023-03-25T01:27:00;94093.22;;;5.72;100.00
11487;BME280;10510;47.942;9.442;2023-03-25T01:29:00;94093.69;;;5.75;100.00
11487;BME280;10510;47.942;9.442;2023-03-25T01:31:02;94084.31;;;5.74;100.00
11487;BME280;10510;47.942;9.442;2023-03-25T01:33:03;94073.94;;;5.74;100.00
11487;BME280;10510;47.942;9.442;2023-03-25T01:35:04;94079.94;;;5.75;100.00
11487;BME280;10510;47.942;9.442;2023-03-25T01:37:05;94066.31;;;5.73;100.00
11487;BME280;10510;47.942;9.442;2023-03-25T01:39:07;94068.09;;;5.72;100.00
11487;BME280;10510;47.942;9.442;2023-03-25T01:41:09;94072.16;;;5.75;100.00
11487;BME280;10510;47.942;9.442;2023-03-25T01:43:10;94065.97;;;5.76;100.00
11487;BME280;10510;47.942;9.442;2023-03-25T01:45:20;94074.91;;;5.73;100.00
11487;BME280;10510;47.942;9.442;2023-03-25T01:47:20;94068.91;;;5.73;100.00
11487;BME280;10510;47.942;9.442;2023-03-25T01:49:24;94074.28;;;5.71;100.00
11487;BME280;10510;47.942;9.442;2023-03-25T01:51:28;94078.00;;;5.68;100.00
11487;BME280;10510;47.942;9.442;2023-03-25T01:53:30;94076.72;;;5.64;100.00
11487;BME280;10510;47.942;9.442;2023-03-25T01:55:33;94075.09;;;5.63;100.00
11487;BME280;10510;47.942;9.442;2023-03-25T01:57:34;94075.28;;;5.62;100.00
11487;BME280;10510;47.942;9.442;2023-03-25T01:59:35;94076.25;;;5.61;100.00
11487;BME280;10510;47.942;9.442;2023-03-25T02:01:36;94081.75;;;5.58;100.00
11487;BME280;10510;47.942;9.442;2023-03-25T02:03:37;94074.50;;;5.53;100.00
11487;BME280;10510;47.942;9.442;2023-03-25T02:05:45;94084.53;;;5.48;100.00
11487;BME280;10510;47.942;9.442;2023-03-25T02:07:48;94084.56;;;5.40;100.00
11487;BME280;10510;47.942;9.442;2023-03-25T02:09:48;94083.91;;;5.38;100.00
11487;BME280;10510;47.942;9.442;2023-03-25T02:11:49;94073.25;;;5.33;100.00
11487;BME280;10510;47.942;9.442;2023-03-25T02:13:59;94087.34;;;5.30;100.00
11487;BME280;10510;47.942;9.442;2023-03-25T02:18:31;94081.81;;;5.25;100.00
11487;BME280;10510;47.942;9.442;2023-03-25T02:21:05;94088.13;;;5.22;100.00
11487;BME280;10510;47.942;9.442;2023-03-25T02:39:54;94094.31;;;5.30;100.00
11487;BME280;10510;47.942;9.442;2023-03-25T02:42:05;94091.53;;;5.31;100.00
11487;BME280;10510;47.942;9.442;2023-03-25T02:44:15;94081.16;;;5.31;100.00
11487;BME280;10510;47.942;9.442;2023-03-25T02:46:17;94075.19;;;5.31;100.00
11487;BME280;10510;47.942;9.442;2023-03-25T02:48:38;94079.38;;;5.32;100.00
11487;BME280;10510;47.942;9.442;2023-03-25T02:50:44;94082.78;;;5.32;100.00
11487;BME280;10510;47.942;9.442;2023-03-25T02:52:54;94084.56;;;5.32;100.00
11487;BME280;10510;47.942;9.442;2023-03-25T02:54:57;94083.75;;;5.31;100.00
11487;BME280;10510;47.942;9.442;2023-03-25T02:57:00;94072.59;;;5.31;100.00
11487;BME280;10510;47.942;9.442;2023-03-25T02:59:01;94088.13;;;5.31;100.00
11487;BME280;10510;47.942;9.442;2023-03-25T03:01:03;94097.38;;;5.33;100.00
11487;BME280;10510;47.942;9.442;2023-03-25T03:03:05;94085.22;;;5.34;100.00
11487;BME280;10510;47.942;9.442;2023-03-25T03:05:24;94089.41;;;5.35;100.00
11487;BME280;10510;47.942;9.442;2023-03-25T03:07:31;94086.00;;;5.34;100.00
11487;BME280;10510;47.942;9.442;2023-03-25T03:09:41;94108.84;;;5.39;100.00
11487;BME280;10510;47.942;9.442;2023-03-25T03:12:05;94090.38;;;5.42;100.00
11487;BME280;10510;47.942;9.442;2023-03-25T03:16:32;94088.28;;;5.45;100.00
11487;BME280;10510;47.942;9.442;2023-03-25T03:23:08;94098.63;;;5.45;100.00
11487;BME280;10510;47.942;9.442;2023-03-25T03:27:38;94117.75;;;5.44;100.00
11487;BME280;10510;47.942;9.442;2023-03-25T03:29:46;94112.59;;;5.44;100.00
11487;BME280;10510;47.942;9.442;2023-03-25T03:34:05;94107.53;;;5.43;100.00
11487;BME280;10510;47.942;9.442;2023-03-25T03:36:12;94110.31;;;5.41;100.00
11487;BME280;10510;47.942;9.442;2023-03-25T03:38:17;94115.84;;;5.38;100.00
11487;BME280;10510;47.942;9.442;2023-03-25T03:40:20;94135.09;;;5.36;100.00
11487;BME280;10510;47.942;9.442;2023-03-25T03:42:50;94163.28;;;5.31;100.00
11487;BME280;10510;47.942;9.442;2023-03-25T03:44:56;94167.19;;;5.27;100.00
11487;BME280;10510;47.942;9.442;2023-03-25T03:47:09;94163.78;;;5.18;100.00
11487;BME280;10510;47.942;9.442;2023-03-25T03:49:15;94160.38;;;5.09;100.00
11487;BME280;10510;47.942;9.442;2023-03-25T03:51:21;94142.06;;;5.03;100.00
11487;BME280;10510;47.942;9.442;2023-03-25T03:53:33;94135.91;;;4.95;100.00
11487;BME280;10510;47.942;9.442;2023-03-25T03:55:58;94146.91;;;4.89;100.00
11487;BME280;10510;47.942;9.442;2023-03-25T03:58:10;94152.72;;;4.83;100.00
11487;BME280;10510;47.942;9.442;2023-03-25T04:00:21;94149.31;;;4.74;100.00
11487;BME280;10510;47.942;9.442;2023-03-25T04:02:29;94172.44;;;4.68;100.00
11487;BME280;10510;47.942;9.442;2023-03-25T04:04:33;94164.47;;;4.61;100.00
11487;BME280;10510;47.942;9.442;2023-03-25T04:06:40;94155.56;;;4.55;100.00
11487;BME280;10510;47.942;9.442;2023-03-25T04:08:51;94152.00;;;4.48;100.00
11487;BME280;10510;47.942;9.442;2023-03-25T04:11:00;94157.81;;;4.42;100.00
11487;BME280;10510;47.942;9.442;2023-03-25T04:13:07;94151.31;;;4.38;100.00
11487;BME280;10510;47.942;9.442;2023-03-25T04:15:09;94141.28;;;4.35;100.00
11487;BME280;10510;47.942;9.442;2023-03-25T04:17:10;94133.69;;;4.33;100.00
11487;BME280;10510;47.942;9.442;2023-03-25T04:19:11;94147.75;;;4.31;100.00
11487;BME280;10510;47.942;9.442;2023-03-25T04:21:17;94139.31;;;4.29;100.00
11487;BME280;10510;47.942;9.442;2023-03-25T04:23:17;94138.50;;;4.28;100.00
11487;BME280;10510;47.942;9.442;2023-03-25T04:25:18;94139.31;;;4.29;100.00
11487;BME280;10510;47.942;9.442;2023-03-25T04:27:20;94131.06;;;4.25;100.00
11487;BME280;10510;47.942;9.442;2023-03-25T04:29:24;94137.06;;;4.26;100.00
11487;BME280;10510;47.942;9.442;2023-03-25T04:31:25;94138.84;;;4.25;100.00
11487;BME280;10510;47.942;9.442;2023-03-25T04:33:25;94148.22;;;4.26;100.00
11487;BME280;10510;47.942;9.442;2023-03-25T04:35:29;94151.63;;;4.27;100.00
11487;BME280;10510;47.942;9.442;2023-03-25T04:37:31;94150.97;;;4.25;100.00
11487;BME280;10510;47.942;9.442;2023-03-25T04:39:32;94150.16;;;4.24;100.00
11487;BME280;10510;47.942;9.442;2023-03-25T04:41:33;94152.88;;;4.23;100.00
11487;BME280;10510;47.942;9.442;2023-03-25T04:43:33;94149.66;;;4.21;100.00
11487;BME280;10510;47.942;9.442;2023-03-25T04:45:34;94148.03;;;4.20;100.00
11487;BME280;10510;47.942;9.442;2023-03-25T04:47:35;94154.31;;;4.17;100.00
11487;BME280;10510;47.942;9.442;2023-03-25T04:49:35;94160.59;;;4.15;100.00
11487;BME280;10510;47.942;9.442;2023-03-25T04:51:36;94161.59;;;4.14;100.00
11487;BME280;10510;47.942;9.442;2023-03-25T04:53:38;94160.13;;;4.11;100.00
11487;BME280;10510;47.942;9.442;2023-03-25T04:55:39;94159.63;;;4.07;100.00
11487;BME280;10510;47.942;9.442;2023-03-25T04:57:48;94158.31;;;4.03;100.00
11487;BME280;10510;47.942;9.442;2023-03-25T04:59:49;94166.38;;;4.00;100.00
11487;BME280;10510;47.942;9.442;2023-03-25T05:01:50;94165.06;;;3.96;100.00
11487;BME280;10510;47.942;9.442;2023-03-25T05:03:51;94167.16;;;3.93;100.00
11487;BME280;10510;47.942;9.442;2023-03-25T05:05:52;94171.81;;;3.89;100.00
11487;BME280;10510;47.942;9.442;2023-03-25T05:07:54;94175.84;;;3.83;100.00
11487;BME280;10510;47.942;9.442;2023-03-25T05:09:54;94182.25;;;3.79;100.00
11487;BME280;10510;47.942;9.442;2023-03-25T05:11:56;94191.16;;;3.77;100.00
11487;BME280;10510;47.942;9.442;2023-03-25T05:13:56;94186.41;;;3.72;100.00
11487;BME280;10510;47.942;9.442;2023-03-25T05:15:56;94184.16;;;3.69;100.00
11487;BME280;10510;47.942;9.442;2023-03-25T05:17:57;94189.75;;;3.64;100.00
11487;BME280;10510;47.942;9.442;2023-03-25T05:19:57;94181.00;;;3.57;100.00
11487;BME280;10510;47.942;9.442;2023-03-25T05:21:57;94190.03;;;3.53;100.00
11487;BME280;10510;47.942;9.442;2023-03-25T05:24:02;94206.78;;;3.49;100.00
11487;BME280;10510;47.942;9.442;2023-03-25T05:26:03;94203.81;;;3.44;100.00
11487;BME280;10510;47.942;9.442;2023-03-25T05:28:04;94198.16;;;3.40;100.00
11487;BME280;10510;47.942;9.442;2023-03-25T05:30:09;94203.63;;;3.37;100.00
11487;BME280;10510;47.942;9.442;2023-03-25T05:32:09;94213.44;;;3.34;100.00
11487;BME280;10510;47.942;9.442;2023-03-25T05:34:12;94212.78;;;3.32;100.00
11487;BME280;10510;47.942;9.442;2023-03-25T05:36:15;94212.13;;;3.30;100.00
11487;BME280;10510;47.942;9.442;2023-03-25T05:38:16;94220.69;;;3.30;100.00
11487;BME280;10510;47.942;9.442;2023-03-25T05:40:17;94226.78;;;3.29;100.00
11487;BME280;10510;47.942;9.442;2023-03-25T05:42:18;94213.06;;;3.29;100.00
11487;BME280;10510;47.942;9.442;2023-03-25T05:44:21;94222.47;;;3.30;100.00
11487;BME280;10510;47.942;9.442;2023-03-25T05:46:22;94221.50;;;3.31;100.00
11487;BME280;10510;47.942;9.442;2023-03-25T05:48:22;94227.63;;;3.30;100.00
11487;BME280;10510;47.942;9.442;2023-03-25T05:50:22;94231.66;;;3.32;100.00
11487;BME280;10510;47.942;9.442;2023-03-25T05:52:23;94230.84;;;3.32;100.00
11487;BME280;10510;47.942;9.442;2023-03-25T05:54:23;94229.06;;;3.32;100.00
11487;BME280;10510;47.942;9.442;2023-03-25T05:56:24;94236.69;;;3.34;100.00
11487;BME280;10510;47.942;9.442;2023-03-25T05:58:25;94234.78;;;3.36;100.00
11487;BME280;10510;47.942;9.442;2023-03-25T06:00:25;94222.50;;;3.38;100.00
11487;BME280;10510;47.942;9.442;2023-03-25T06:02:25;94227.38;;;3.41;100.00
11487;BME280;10510;47.942;9.442;2023-03-25T06:04:26;94230.63;;;3.43;100.00
11487;BME280;10510;47.942;9.442;2023-03-25T06:06:26;94224.34;;;3.46;100.00
11487;BME280;10510;47.942;9.442;2023-03-25T06:08:27;94223.09;;;3.50;100.00
11487;BME280;10510;47.942;9.442;2023-03-25T06:10:28;94229.59;;;3.54;100.00
11487;BME280;10510;47.942;9.442;2023-03-25T06:12:29;94226.03;;;3.55;100.00
11487;BME280;10510;47.942;9.442;2023-03-25T06:14:31;94224.94;;;3.57;100.00
11487;BME280;10510;47.942;9.442;2023-03-25T06:16:32;94223.00;;;3.59;100.00
11487;BME280;10510;47.942;9.442;2023-03-25T06:18:33;94219.47;;;3.60;100.00
11487;BME280;10510;47.942;9.442;2023-03-25T06:20:34;94223.53;;;3.63;100.00
11487;BME280;10510;47.942;9.442;2023-03-25T06:22:36;94228.69;;;3.63;100.00
11487;BME280;10510;47.942;9.442;2023-03-25T06:24:37;94233.06;;;3.62;100.00
11487;BME280;10510;47.942;9.442;2023-03-25T06:26:38;94234.66;;;3.63;100.00
11487;BME280;10510;47.942;9.442;2023-03-25T06:28:38;94243.72;;;3.68;100.00
11487;BME280;10510;47.942;9.442;2023-03-25T06:30:38;94244.25;;;3.71;100.00
11487;BME280;10510;47.942;9.442;2023-03-25T06:32:39;94244.75;;;3.75;100.00
11487;BME280;10510;47.942;9.442;2023-03-25T06:34:40;94242.00;;;3.76;100.00
11487;BME280;10510;47.942;9.442;2023-03-25T06:36:43;94239.97;;;3.80;100.00
11487;BME280;10510;47.942;9.442;2023-03-25T06:38:45;94250.81;;;3.83;100.00
11487;BME280;10510;47.942;9.442;2023-03-25T06:40:47;94252.59;;;3.83;100.00
11487;BME280;10510;47.942;9.442;2023-03-25T06:42:47;94248.34;;;3.82;100.00
11487;BME280;10510;47.942;9.442;2023-03-25T06:44:47;94251.78;;;3.82;100.00
11487;BME280;10510;47.942;9.442;2023-03-25T06:46:47;94251.91;;;3.81;100.00
11487;BME280;10510;47.942;9.442;2023-03-25T06:48:48;94254.63;;;3.79;100.00
11487;BME280;10510;47.942;9.442;2023-03-25T06:50:48;94251.09;;;3.80;100.00
11487;BME280;10510;47.942;9.442;2023-03-25T06:52:48;94263.06;;;3.81;100.00
11487;BME280;10510;47.942;9.442;2023-03-25T06:54:49;94257.09;;;3.81;100.00
11487;BME280;10510;47.942;9.442;2023-03-25T06:56:49;94254.50;;;3.81;100.00
11487;BME280;10510;47.942;9.442;2023-03-25T06:58:49;94266.63;;;3.80;100.00
11487;BME280;10510;47.942;9.442;2023-03-25T07:00:53;94266.63;;;3.80;100.00
11487;BME280;10510;47.942;9.442;2023-03-25T07:02:53;94253.81;;;3.79;100.00
11487;BME280;10510;47.942;9.442;2023-03-25T07:04:54;94265.28;;;3.76;100.00
11487;BME280;10510;47.942;9.442;2023-03-25T07:06:54;94269.50;;;3.77;100.00
11487;BME280;10510;47.942;9.442;2023-03-25T07:08:55;94265.81;;;3.80;100.00
11487;BME280;10510;47.942;9.442;2023-03-25T07:11:06;94256.94;;;3.82;100.00
11487;BME280;10510;47.942;9.442;2023-03-25T07:13:08;94271.31;;;3.85;100.00
11487;BME280;10510;47.942;9.442;2023-03-25T07:15:08;94270.69;;;3.83;100.00
11487;BME280;10510;47.942;9.442;2023-03-25T07:17:09;94269.88;;;3.82;100.00
11487;BME280;10510;47.942;9.442;2023-03-25T07:19:09;94269.72;;;3.84;100.00
11487;BME280;10510;47.942;9.442;2023-03-25T07:21:10;94262.44;;;3.87;100.00
11487;BME280;10510;47.942;9.442;2023-03-25T07:23:10;94269.09;;;3.90;100.00
11487;BME280;10510;47.942;9.442;2023-03-25T07:25:10;94261.22;;;3.92;100.00
11487;BME280;10510;47.942;9.442;2023-03-25T07:27:11;94266.88;;;3.95;100.00
11487;BME280;10510;47.942;9.442;2023-03-25T07:29:11;94265.59;;;3.99;100.00
11487;BME280;10510;47.942;9.442;2023-03-25T07:31:13;94254.94;;;4.02;100.00
11487;BME280;10510;47.942;9.442;2023-03-25T07:33:14;94255.63;;;4.04;100.00
11487;BME280;10510;47.942;9.442;2023-03-25T07:35:15;94255.19;;;4.09;100.00
11487;BME280;10510;47.942;9.442;2023-03-25T07:37:15;94258.91;;;4.15;100.00
11487;BME280;10510;47.942;9.442;2023-03-25T07:39:15;94253.44;;;4.18;100.00
11487;BME280;10510;47.942;9.442;2023-03-25T07:41:17;94254.09;;;4.20;100.00
11487;BME280;10510;47.942;9.442;2023-03-25T07:43:18;94245.06;;;4.24;100.00
11487;BME280;10510;47.942;9.442;2023-03-25T07:45:18;94247.97;;;4.29;100.00
11487;BME280;10510;47.942;9.442;2023-03-25T07:47:18;94252.22;;;4.38;100.00
11487;BME280;10510;47.942;9.442;2023-03-25T07:49:18;94248.06;;;4.45;100.00
11487;BME280;10510;47.942;9.442;2023-03-25T07:51:19;94237.25;;;4.50;100.00
11487;BME280;10510;47.942;9.442;2023-03-25T07:53:19;94242.75;;;4.55;100.00
11487;BME280;10510;47.942;9.442;2023-03-25T07:55:20;94241.50;;;4.59;100.00
11487;BME280;10510;47.942;9.442;2023-03-25T07:57:20;94233.91;;;4.66;100.00
11487;BME280;10510;47.942;9.442;2023-03-25T07:59:21;94238.59;;;4.70;100.00
11487;BME280;10510;47.942;9.442;2023-03-25T08:01:21;94229.72;;;4.73;100.00
11487;BME280;10510;47.942;9.442;2023-03-25T08:03:21;94236.84;;;4.79;100.00
11487;BME280;10510;47.942;9.442;2023-03-25T08:05:22;94231.22;;;4.84;100.00
11487;BME280;10510;47.942;9.442;2023-03-25T08:07:22;94238.53;;;4.88;100.00
11487;BME280;10510;47.942;9.442;2023-03-25T08:09:23;94236.25;;;4.93;100.00
11487;BME280;10510;47.942;9.442;2023-03-25T08:11:23;94234.66;;;5.00;100.00
11487;BME280;10510;47.942;9.442;2023-03-25T08:13:24;94243.59;;;5.06;100.00
11487;BME280;10510;47.942;9.442;2023-03-25T08:15:24;94239.69;;;5.10;100.00
11487;BME280;10510;47.942;9.442;2023-03-25T08:17:25;94234.84;;;5.15;100.00
11487;BME280;10510;47.942;9.442;2023-03-25T08:19:25;94231.13;;;5.26;100.00
11487;BME280;10510;47.942;9.442;2023-03-25T08:21:25;94227.91;;;5.40;100.00
11487;BME280;10510;47.942;9.442;2023-03-25T08:23:26;94225.47;;;5.63;100.00
11487;BME280;10510;47.942;9.442;2023-03-25T08:25:27;94234.88;;;5.73;100.00
11487;BME280;10510;47.942;9.442;2023-03-25T08:27:28;94227.06;;;6.05;100.00
11487;BME280;10510;47.942;9.442;2023-03-25T08:29:28;94221.84;;;6.30;100.00
11487;BME280;10510;47.942;9.442;2023-03-25T08:31:30;94223.06;;;6.50;100.00
11487;BME280;10510;47.942;9.442;2023-03-25T08:33:34;94228.03;;;6.68;100.00
11487;BME280;10510;47.942;9.442;2023-03-25T08:35:39;94214.94;;;6.85;100.00
11487;BME280;10510;47.942;9.442;2023-03-25T08:37:40;94210.06;;;6.90;100.00
11487;BME280;10510;47.942;9.442;2023-03-25T08:39:41;94217.88;;;6.81;100.00
11487;BME280;10510;47.942;9.442;2023-03-25T08:41:44;94209.78;;;6.76;100.00
11487;BME280;10510;47.942;9.442;2023-03-25T08:43:44;94217.91;;;6.73;100.00
11487;BME280;10510;47.942;9.442;2023-03-25T08:45:44;94218.25;;;6.70;100.00
11487;BME280;10510;47.942;9.442;2023-03-25T08:47:45;94214.59;;;6.88;100.00
11487;BME280;10510;47.942;9.442;2023-03-25T08:49:45;94222.69;;;6.93;100.00
11487;BME280;10510;47.942;9.442;2023-03-25T08:51:46;94220.09;;;6.93;100.00
11487;BME280;10510;47.942;9.442;2023-03-25T08:53:46;94211.53;;;6.84;100.00
11487;BME280;10510;47.942;9.442;2023-03-25T08:55:50;94213.72;;;7.03;100.00
11487;BME280;10510;47.942;9.442;2023-03-25T08:57:51;94208.44;;;7.12;100.00
11487;BME280;10510;47.942;9.442;2023-03-25T08:59:52;94210.25;;;7.34;100.00
11487;BME280;10510;47.942;9.442;2023-03-25T09:01:52;94219.09;;;7.48;100.00
11487;BME280;10510;47.942;9.442;2023-03-25T09:03:53;94217.28;;;7.71;100.00
11487;BME280;10510;47.942;9.442;2023-03-25T09:05:54;94206.25;;;7.69;100.00
11487;BME280;10510;47.942;9.442;2023-03-25T09:07:55;94208.81;;;7.55;100.00
11487;BME280;10510;47.942;9.442;2023-03-25T09:09:55;94208.59;;;7.41;100.00
11487;BME280;10510;47.942;9.442;2023-03-25T09:11:55;94209.00;;;7.53;100.00
11487;BME280;10510;47.942;9.442;2023-03-25T09:13:56;94200.44;;;7.82;100.00
11487;BME280;10510;47.942;9.442;2023-03-25T09:15:57;94200.44;;;7.97;100.00
11487;BME280;10510;47.942;9.442;2023-03-25T09:17:57;94199.06;;;8.09;100.00
11487;BME280;10510;47.942;9.442;2023-03-25T09:19:58;94197.91;;;8.56;100.00
11487;BME280;10510;47.942;9.442;2023-03-25T09:21:58;94195.75;;;8.60;100.00
11487;BME280;10510;47.942;9.442;2023-03-25T09:23:58;94199.78;;;8.62;100.00
11487;BME280;10510;47.942;9.442;2023-03-25T09:26:00;94194.94;;;8.59;100.00
11487;BME280;10510;47.942;9.442;2023-03-25T09:28:01;94201.47;;;8.55;100.00
11487;BME280;10510;47.942;9.442;2023-03-25T09:30:03;94199.78;;;8.33;100.00
11487;BME280;10510;47.942;9.442;2023-03-25T09:32:04;94198.88;;;8.26;100.00
11487;BME280;10510;47.942;9.442;2023-03-25T09:34:04;94207.66;;;8.25;100.00
11487;BME280;10510;47.942;9.442;2023-03-25T09:36:05;94208.81;;;8.07;100.00
11487;BME280;10510;47.942;9.442;2023-03-25T09:38:07;94213.03;;;7.70;100.00
11487;BME280;10510;47.942;9.442;2023-03-25T09:40:11;94202.81;;;7.54;100.00
11487;BME280;10510;47.942;9.442;2023-03-25T09:42:39;94218.09;;;7.49;100.00
11487;BME280;10510;47.942;9.442;2023-03-25T09:46:51;94211.81;;;7.43;100.00
11487;BME280;10510;47.942;9.442;2023-03-25T09:48:53;94207.03;;;8.08;100.00
11487;BME280;10510;47.942;9.442;2023-03-25T09:50:57;94199.41;;;8.21;100.00
11487;BME280;10510;47.942;9.442;2023-03-25T09:53:22;94193.66;;;8.11;100.00
11487;BME280;10510;47.942;9.442;2023-03-25T09:55:29;94193.47;;;7.83;100.00
11487;BME280;10510;47.942;9.442;2023-03-25T09:57:35;94201.22;;;7.68;100.00
11487;BME280;10510;47.942;9.442;2023-03-25T09:59:44;94201.88;;;7.47;100.00
11487;BME280;10510;47.942;9.442;2023-03-25T10:02:01;94207.72;;;7.26;100.00
11487;BME280;10510;47.942;9.442;2023-03-25T10:04:28;94206.03;;;7.10;100.00
11487;BME280;10510;47.942;9.442;2023-03-25T10:06:51;94206.47;;;6.91;100.00
11487;BME280;10510;47.942;9.442;2023-03-25T10:09:19;94184.13;;;6.81;100.00
11487;BME280;10510;47.942;9.442;2023-03-25T10:16:05;94226.22;;;6.69;100.00
11487;BME280;10510;47.942;9.442;2023-03-25T10:21:07;94222.72;;;6.53;100.00
11487;BME280;10510;47.942;9.442;2023-03-25T10:25:24;94193.78;;;6.65;100.00
11487;BME280;10510;47.942;9.442;2023-03-25T10:27:36;94198.91;;;6.81;100.00
11487;BME280;10510;47.942;9.442;2023-03-25T10:29:48;94205.78;;;6.97;100.00
11487;BME280;10510;47.942;9.442;2023-03-25T10:31:56;94212.16;;;7.17;100.00
11487;BME280;10510;47.942;9.442;2023-03-25T10:34:01;94214.69;;;7.48;100.00
11487;BME280;10510;47.942;9.442;2023-03-25T10:36:08;94214.44;;;7.81;100.00
11487;BME280;10510;47.942;9.442;2023-03-25T10:38:21;94204.97;;;8.03;100.00
11487;BME280;10510;47.942;9.442;2023-03-25T10:40:32;94203.34;;;8.32;100.00
11487;BME280;10510;47.942;9.442;2023-03-25T10:42:38;94214.84;;;8.37;100.00
11487;BME280;10510;47.942;9.442;2023-03-25T10:44:40;94217.56;;;8.44;100.00
11487;BME280;10510;47.942;9.442;2023-03-25T10:46:51;94229.91;;;8.50;100.00
11487;BME280;10510;47.942;9.442;2023-03-25T10:48:58;94208.06;;;8.51;100.00
11487;BME280;10510;47.942;9.442;2023-03-25T10:51:03;94213.91;;;8.53;100.00
11487;BME280;10510;47.942;9.442;2023-03-25T10:53:06;94218.75;;;8.41;100.00
11487;BME280;10510;47.942;9.442;2023-03-25T10:55:39;94225.25;;;8.23;100.00
11487;BME280;10510;47.942;9.442;2023-03-25T10:57:41;94234.59;;;8.17;100.00
11487;BME280;10510;47.942;9.442;2023-03-25T10:59:47;94226.69;;;8.10;100.00
11487;BME280;10510;47.942;9.442;2023-03-25T11:01:52;94233.56;;;7.88;100.00
11487;BME280;10510;47.942;9.442;2023-03-25T11:03:53;94230.81;;;7.67;100.00
11487;BME280;10510;47.942;9.442;2023-03-25T11:05:55;94223.00;;;7.44;100.00
11487;BME280;10510;47.942;9.442;2023-03-25T11:07:58;94230.84;;;7.21;100.00
11487;BME280;10510;47.942;9.442;2023-03-25T11:10:10;94224.91;;;7.04;100.00
11487;BME280;10510;47.942;9.442;2023-03-25T11:12:17;94228.41;;;6.88;100.00
11487;BME280;10510;47.942;9.442;2023-03-25T11:14:23;94234.22;;;6.90;100.00
11487;BME280;10510;47.942;9.442;2023-03-25T11:16:24;94233.41;;;6.98;100.00
11487;BME280;10510;47.942;9.442;2023-03-25T11:18:37;94243.31;;;6.94;100.00
11487;BME280;10510;47.942;9.442;2023-03-25T11:20:39;94229.16;;;6.97;100.00
11487;BME280;10510;47.942;9.442;2023-03-25T11:22:47;94240.31;;;7.05;100.00
11487;BME280;10510;47.942;9.442;2023-03-25T11:24:51;94232.81;;;7.11;100.00
11487;BME280;10510;47.942;9.442;2023-03-25T11:26:57;94245.75;;;7.50;100.00
11487;BME280;10510;47.942;9.442;2023-03-25T11:29:04;94231.88;;;8.10;100.00
11487;BME280;10510;47.942;9.442;2023-03-25T11:31:06;94241.63;;;8.61;100.00
11487;BME280;10510;47.942;9.442;2023-03-25T11:33:13;94239.09;;;8.68;100.00
11487;BME280;10510;47.942;9.442;2023-03-25T11:35:21;94236.63;;;8.59;100.00